Time;durP1;ratioP1;P1;durP2;ratioP2;P2;SDS_P1;SDS_P2;PMS_P1;PMS_P2;Temp;Humidity;BMP_temperature;BMP_pressure;BME280_temperature;BME280_humidity;BME280_pressure;Samples;Min_cycle;Max_cycle;Signal;HPM_P1;HPM_P2
2022/01/30 00:00:43;;;;;;;46.15;22.67;;;;;;;-0.57;90.58;98251.63;5067514;28;20112;-77
2022/01/30 00:03:09;;;;;;;48.10;21.80;;;;;;;-0.59;90.75;98250.16;5049371;28;20549;-75
2022/01/30 00:05:34;;;;;;;50.47;23.75;;;;;;;-0.70;91.93;98234.75;5044885;28;20120;-74
2022/01/30 00:08:00;;;;;;;49.55;22.95;;;;;;;-0.63;91.13;98244.41;5050901;28;20024;-75
2022/01/30 00:10:26;;;;;;;49.25;21.73;;;;;;;-0.73;90.99;98240.56;5049531;28;20066;-75
2022/01/30 00:12:56;;;;;;;53.88;23.80;;;;;;;-0.88;91.61;98237.34;5049946;28;20106;-76
2022/01/30 00:15:35;;;;;;;52.28;21.30;;;;;;;-0.80;92.36;98243.28;5051107;28;20021;-75
2022/01/30 00:20:57;;;;;;;59.67;22.02;;;;;;;-0.77;92.45;98239.34;5050124;28;20390;-74
2022/01/30 00:23:26;;;;;;;54.42;22.85;;;;;;;-0.71;93.81;98243.84;5073844;28;20036;-76
2022/01/30 00:25:54;;;;;;;46.05;22.55;;;;;;;-0.66;91.87;98226.03;5049132;28;20021;-76
2022/01/30 00:28:22;;;;;;;51.03;21.25;;;;;;;-0.49;91.91;98231.72;5043691;28;20052;-75
2022/01/30 00:30:48;;;;;;;50.15;21.33;;;;;;;-0.43;89.51;98225.47;5050150;28;20025;-73
2022/01/30 00:33:13;;;;;;;47.45;21.05;;;;;;;-0.60;89.88;98214.44;5050190;28;20097;-75
2022/01/30 00:35:39;;;;;;;49.22;20.55;;;;;;;-0.64;90.74;98225.81;5050344;28;20132;-76
2022/01/30 00:38:10;;;;;;;53.88;21.73;;;;;;;-0.63;89.17;98230.16;5050784;28;20029;-76
2022/01/30 00:40:36;;;;;;;52.10;22.23;;;;;;;-0.85;89.95;98227.00;5048875;28;20078;-75
2022/01/30 00:43:01;;;;;;;58.15;25.17;;;;;;;-0.88;89.87;98221.25;5048649;28;20025;-75
2022/01/30 00:45:27;;;;;;;59.53;24.42;;;;;;;-0.85;91.63;98236.94;5050144;28;20035;-75
2022/01/30 00:47:52;;;;;;;49.90;22.58;;;;;;;-0.67;91.32;98229.78;5048746;28;20025;-74
2022/01/30 00:50:17;;;;;;;46.35;20.70;;;;;;;-0.83;90.10;98224.91;5049854;28;20025;-76
2022/01/30 00:52:43;;;;;;;46.38;21.80;;;;;;;-0.96;91.01;98214.25;5048632;28;20048;-75
2022/01/30 00:55:09;;;;;;;44.63;20.98;;;;;;;-1.08;91.61;98207.94;5050091;28;20020;-75
2022/01/30 00:57:34;;;;;;;38.30;18.67;;;;;;;-1.08;92.15;98199.88;5048572;28;20406;-74
2022/01/30 00:59:59;;;;;;;42.70;19.05;;;;;;;-1.13;92.76;98197.84;5046241;28;20107;-78
2022/01/30 01:02:25;;;;;;;46.83;17.50;;;;;;;-1.10;93.09;98200.09;5050473;28;20131;-76
2022/01/30 01:04:50;;;;;;;47.60;20.25;;;;;;;-1.07;92.89;98190.81;5054969;28;20029;-76
2022/01/30 01:07:21;;;;;;;38.67;16.02;;;;;;;-1.14;92.69;98184.66;5053489;28;20024;-76
2022/01/30 01:23:24;;;;;;;37.90;17.35;;;;;;;-1.18;92.99;98173.53;5050151;28;20032;-76
2022/01/30 01:23:50;;;;;;;38.95;16.67;;;;;;;-1.24;93.39;98163.66;5050944;28;20072;-75
2022/01/30 01:26:18;;;;;;;38.42;17.75;;;;;;;-1.22;92.82;98161.56;5050792;28;20024;-76
2022/01/30 01:28:45;;;;;;;39.58;17.30;;;;;;;-1.28;92.97;98154.38;5050757;28;20029;-76
2022/01/30 01:31:11;;;;;;;38.75;18.15;;;;;;;-1.33;94.19;98148.03;5050677;28;20401;-74
2022/01/30 01:36:21;;;;;;;44.78;18.40;;;;;;;-1.31;93.78;98157.50;5030737;28;20036;-75
2022/01/30 01:38:47;;;;;;;44.80;16.77;;;;;;;-1.35;93.81;98161.66;5031144;28;20029;-75
2022/01/30 01:41:17;;;;;;;41.75;17.17;;;;;;;-1.36;94.35;98148.44;5030835;28;20043;-75
2022/01/30 01:43:42;;;;;;;39.63;17.55;;;;;;;-1.32;94.20;98144.31;5030298;28;20056;-77
2022/01/30 01:46:14;;;;;;;39.67;16.58;;;;;;;-1.28;93.15;98146.34;5030913;28;20057;-73
2022/01/30 01:48:42;;;;;;;37.65;15.60;;;;;;;-1.23;91.36;98138.47;5030629;28;20033;-74
2022/01/30 01:51:15;;;;;;;35.25;16.05;;;;;;;-1.20;91.29;98143.41;5030840;28;20456;-74
2022/01/30 01:53:41;;;;;;;28.63;14.15;;;;;;;-1.20;90.13;98154.16;5037119;28;20029;-78
2022/01/30 01:56:07;;;;;;;32.67;14.82;;;;;;;-1.22;89.60;98155.38;5030657;28;20541;-76
2022/01/30 01:58:33;;;;;;;32.42;14.90;;;;;;;-1.26;90.31;98148.81;5034082;28;20036;-75
2022/01/30 02:01:01;;;;;;;38.20;15.27;;;;;;;-1.17;89.11;98155.56;5032449;28;20044;-75
2022/01/30 02:03:27;;;;;;;29.02;14.30;;;;;;;-1.20;88.40;98159.50;5034334;28;20116;-75
2022/01/30 02:05:57;;;;;;;34.88;15.18;;;;;;;-1.20;88.43;98154.16;5035068;28;20735;-75
2022/01/30 02:08:33;;;;;;;28.05;13.25;;;;;;;-1.19;87.53;98149.59;5053521;28;20022;-74
2022/01/30 02:24:47;;;;;;;30.25;14.05;;;;;;;-1.32;89.62;98118.31;5054065;28;20290;-74
2022/01/30 02:27:15;;;;;;;30.83;14.52;;;;;;;-1.25;88.97;98124.44;5049604;28;20035;-74
2022/01/30 02:29:41;;;;;;;30.50;14.38;;;;;;;-1.43;89.44;98104.75;5074918;28;20036;-73
2022/01/30 02:32:07;;;;;;;34.13;15.38;;;;;;;-1.38;88.81;98113.78;5053794;28;20025;-75
2022/01/30 02:34:32;;;;;;;31.58;13.48;;;;;;;-1.46;89.77;98110.53;5037625;28;20021;-76
2022/01/30 02:36:59;;;;;;;32.20;15.43;;;;;;;-1.59;90.60;98111.44;5033745;28;20040;-75
2022/01/30 02:39:25;;;;;;;31.73;15.57;;;;;;;-1.67;91.51;98106.34;5034645;28;20047;-73
2022/01/30 02:41:52;;;;;;;37.55;16.58;;;;;;;-1.62;91.47;98106.50;5034606;28;20030;-77
2022/01/30 02:46:49;;;;;;;34.10;16.42;;;;;;;-1.73;92.46;98099.16;5050587;28;20071;-80
2022/01/30 02:51:56;;;;;;;33.00;15.07;;;;;;;-1.69;92.27;98095.81;5053161;28;20171;-75
2022/01/30 02:54:21;;;;;;;38.28;15.50;;;;;;;-1.62;92.70;98087.72;5053261;28;20024;-75
2022/01/30 02:56:47;;;;;;;31.45;13.60;;;;;;;-1.48;90.52;98088.50;5051829;28;20499;-74
2022/01/30 02:59:13;;;;;;;33.03;14.63;;;;;;;-1.62;91.48;98080.53;5052528;28;20029;-74
2022/01/30 03:01:40;;;;;;;34.63;15.43;;;;;;;-1.64;91.08;98085.28;5054053;28;20402;-75
2022/01/30 03:04:07;;;;;;;34.03;15.68;;;;;;;-1.58;91.66;98075.56;5052080;28;20023;-75
2022/01/30 03:06:33;;;;;;;34.15;17.15;;;;;;;-1.72;92.70;98090.06;5053067;28;20035;-75
2022/01/30 03:08:58;;;;;;;31.08;14.02;;;;;;;-1.69;92.98;98090.44;5053520;28;20029;-75
2022/01/30 03:11:24;;;;;;;35.03;14.25;;;;;;;-1.73;92.04;98085.75;5053013;28;20029;-75
2022/01/30 03:13:50;;;;;;;35.65;15.48;;;;;;;-1.61;92.04;98084.03;5051508;28;20083;-75
2022/01/30 03:16:15;;;;;;;36.80;16.02;;;;;;;-1.58;92.06;98091.63;5053394;28;20009;-76
2022/01/30 03:18:41;;;;;;;33.92;15.25;;;;;;;-1.57;91.56;98081.75;5056553;28;20021;-77
2022/01/30 03:21:07;;;;;;;32.22;15.38;;;;;;;-1.58;91.85;98102.38;5054147;28;20489;-75
2022/01/30 03:23:36;;;;;;;35.17;16.25;;;;;;;-1.66;92.13;98102.63;5034233;28;20033;-75
2022/01/30 03:26:02;;;;;;;35.78;15.25;;;;;;;-1.56;92.45;98096.78;5032853;28;20028;-76
2022/01/30 03:28:29;;;;;;;29.63;13.93;;;;;;;-1.49;91.66;98094.88;5032855;28;20379;-75
2022/01/30 03:30:59;;;;;;;34.83;15.07;;;;;;;-1.47;90.74;98093.63;5032366;28;20040;-74
2022/01/30 03:33:25;;;;;;;31.92;14.57;;;;;;;-1.52;91.31;98106.88;5032471;28;20028;-75
2022/01/30 03:35:50;;;;;;;28.92;13.43;;;;;;;-1.59;90.92;98089.97;5032451;28;20022;-75
2022/01/30 03:38:16;;;;;;;35.60;14.40;;;;;;;-1.57;91.42;98098.66;5031606;28;20083;-76
2022/01/30 03:40:43;;;;;;;28.33;14.27;;;;;;;-1.61;91.61;98086.72;5032561;28;20032;-74
2022/01/30 03:43:08;;;;;;;32.78;13.25;;;;;;;-1.65;91.59;98078.28;5033014;28;20025;-76
2022/01/30 03:45:34;;;;;;;31.83;13.45;;;;;;;-1.70;91.29;98069.22;5034136;28;20033;-76
2022/01/30 03:47:59;;;;;;;26.45;13.18;;;;;;;-1.71;91.75;98056.84;5032987;28;20060;-76
2022/01/30 03:50:25;;;;;;;29.95;13.18;;;;;;;-1.72;91.98;98047.16;5033247;28;20045;-78
2022/01/30 03:52:50;;;;;;;24.63;12.02;;;;;;;-1.79;91.45;98071.34;5032201;28;20164;-76
2022/01/30 03:55:16;;;;;;;30.30;13.73;;;;;;;-1.72;91.97;98045.31;5031081;28;20057;-75
2022/01/30 03:57:42;;;;;;;32.80;14.65;;;;;;;-1.80;91.68;98074.22;5032096;28;20051;-75
2022/01/30 04:00:08;;;;;;;27.83;14.88;;;;;;;-1.77;92.25;98071.13;5032123;28;20034;-75
2022/01/30 04:02:34;;;;;;;32.45;15.07;;;;;;;-1.82;92.48;98060.22;5032014;28;20100;-75
2022/01/30 04:05:00;;;;;;;38.70;15.52;;;;;;;-1.84;92.69;98038.97;5039309;28;20452;-75
2022/01/30 04:07:26;;;;;;;30.95;13.98;;;;;;;-1.76;92.69;98029.88;5050842;28;20032;-75
2022/01/30 04:09:52;;;;;;;31.88;14.18;;;;;;;-1.88;93.00;98043.13;5049071;28;20116;-75
2022/01/30 04:12:17;;;;;;;41.60;15.05;;;;;;;-1.91;94.19;98037.41;5050781;28;20554;-75
2022/01/30 04:14:43;;;;;;;35.10;14.68;;;;;;;-1.95;93.93;98028.13;5050757;28;20049;-74
2022/01/30 04:17:09;;;;;;;32.65;14.68;;;;;;;-1.98;94.85;98036.59;5049110;28;20123;-74
2022/01/30 04:19:36;;;;;;;36.15;15.30;;;;;;;-1.90;94.58;98018.41;5049029;28;20517;-75
2022/01/30 04:22:02;;;;;;;34.05;15.27;;;;;;;-1.98;94.97;98010.63;5049582;28;20033;-74
2022/01/30 04:24:27;;;;;;;29.80;13.25;;;;;;;-1.88;93.76;98027.03;5050006;28;20033;-74
2022/01/30 04:26:52;;;;;;;33.15;13.50;;;;;;;-1.95;94.49;97987.94;5051228;28;20032;-75
2022/01/30 04:29:18;;;;;;;27.42;14.27;;;;;;;-2.00;94.92;98015.38;5050142;28;20044;-76
2022/01/30 04:31:44;;;;;;;30.13;14.93;;;;;;;-1.98;95.38;98009.81;5049776;28;20025;-76
2022/01/30 04:34:10;;;;;;;28.48;12.75;;;;;;;-1.90;95.16;98002.31;5051442;28;20426;-75
2022/01/30 04:36:42;;;;;;;37.40;15.85;;;;;;;-1.99;95.43;98014.34;5050799;28;20036;-77
2022/01/30 04:40:11;;;;;;;36.35;16.38;;;;;;;-1.98;95.76;97991.88;5057950;28;20029;-76
2022/01/30 05:07:47;;;;;;;38.38;17.15;;;;;;;-2.21;100.00;97976.31;5051272;28;20061;-74
2022/01/30 05:10:12;;;;;;;36.88;15.93;;;;;;;-2.18;100.00;97981.25;5050965;28;20120;-76
2022/01/30 05:12:47;;;;;;;37.72;15.23;;;;;;;-2.25;100.00;97972.44;5051010;28;20103;-76
2022/01/30 05:15:13;;;;;;;37.13;17.65;;;;;;;-2.25;100.00;97990.34;5051139;28;20017;-77
2022/01/30 05:17:39;;;;;;;33.17;14.80;;;;;;;-2.16;100.00;97992.56;5051130;28;20036;-77
2022/01/30 05:20:05;;;;;;;36.53;16.25;;;;;;;-2.19;100.00;97976.94;5051040;28;20029;-77
2022/01/30 05:22:31;;;;;;;26.40;14.32;;;;;;;-2.22;100.00;97992.59;5050874;28;20051;-75
2022/01/30 05:24:56;;;;;;;35.42;16.70;;;;;;;-2.24;100.00;97983.97;5050630;28;20029;-77
2022/01/30 05:27:22;;;;;;;34.25;16.80;;;;;;;-2.29;100.00;97965.84;5050866;28;20092;-75
2022/01/30 05:29:48;;;;;;;34.33;15.95;;;;;;;-2.40;100.00;97985.28;5050077;28;20144;-78
2022/01/30 05:32:13;;;;;;;34.75;15.40;;;;;;;-2.38;100.00;97950.25;5058305;28;20020;-76
2022/01/30 05:34:39;;;;;;;37.63;16.38;;;;;;;-2.45;100.00;97969.03;5058762;28;20049;-76
2022/01/30 05:37:08;;;;;;;36.55;16.30;;;;;;;-2.38;100.00;97971.69;5056955;28;20032;-75
2022/01/30 05:39:34;;;;;;;34.70;15.52;;;;;;;-2.33;100.00;97959.28;5054946;28;20036;-74
2022/01/30 05:42:00;;;;;;;34.50;15.68;;;;;;;-2.20;100.00;97964.59;5050911;28;20417;-76
2022/01/30 05:44:39;;;;;;;33.85;15.23;;;;;;;-2.29;100.00;97975.75;5050567;28;20112;-75
2022/01/30 05:47:09;;;;;;;33.35;15.57;;;;;;;-2.19;100.00;97960.84;5049318;28;20032;-74
2022/01/30 05:49:36;;;;;;;38.08;16.40;;;;;;;-2.29;100.00;97975.75;5050640;28;20029;-74
2022/01/30 05:52:02;;;;;;;38.72;16.23;;;;;;;-2.41;100.00;97972.91;5049214;28;20060;-75
2022/01/30 05:54:28;;;;;;;43.30;17.52;;;;;;;-2.49;100.00;97983.03;5050472;28;20045;-76
2022/01/30 05:56:53;;;;;;;44.70;17.08;;;;;;;-2.50;100.00;97976.88;5050282;28;20409;-76
2022/01/30 05:59:18;;;;;;;40.08;15.82;;;;;;;-2.51;100.00;97967.22;5050307;28;20044;-76
2022/01/30 06:01:44;;;;;;;40.35;16.58;;;;;;;-2.52;100.00;97975.44;5050572;28;20033;-74
2022/01/30 06:04:09;;;;;;;32.90;16.58;;;;;;;-2.41;100.00;97977.47;5050378;28;20471;-75
2022/01/30 06:06:35;;;;;;;36.65;15.77;;;;;;;-2.47;100.00;97963.06;5049181;28;20040;-74
2022/01/30 06:09:19;;;;;;;40.35;17.10;;;;;;;-2.59;100.00;97970.09;5050691;28;20040;-75
2022/01/30 06:11:47;;;;;;;33.63;14.82;;;;;;;-2.61;100.00;97961.47;5050298;28;20116;-75
2022/01/30 06:14:13;;;;;;;36.63;15.65;;;;;;;-2.57;100.00;97962.72;5050393;28;20470;-76
2022/01/30 06:16:38;;;;;;;38.17;17.83;;;;;;;-2.54;100.00;97956.09;5050194;28;20028;-75
2022/01/30 06:19:04;;;;;;;34.13;16.60;;;;;;;-2.62;100.00;97959.81;5038945;28;20072;-76
2022/01/30 06:21:29;;;;;;;32.95;16.52;;;;;;;-2.57;100.00;97951.16;5048951;28;20028;-75
2022/01/30 06:23:55;;;;;;;35.53;15.65;;;;;;;-2.59;100.00;97962.06;5030462;28;20103;-77
2022/01/30 06:26:20;;;;;;;40.15;15.57;;;;;;;-2.50;100.00;97955.44;5030599;28;20082;-75
2022/01/30 06:28:46;;;;;;;40.08;18.65;;;;;;;-2.38;100.00;97948.38;5032368;28;20166;-77
2022/01/30 06:31:11;;;;;;;57.40;23.80;;;;;;;-2.46;100.00;97962.03;5053155;28;20025;-75
2022/01/30 06:33:37;;;;;;;84.72;35.72;;;;;;;-2.44;100.00;97938.53;5050531;28;20474;-75
2022/01/30 06:36:02;;;;;;;55.95;24.52;;;;;;;-2.48;100.00;97948.03;5050142;28;20104;-75
2022/01/30 06:38:28;;;;;;;57.20;23.73;;;;;;;-2.51;100.00;97961.84;5050628;28;20474;-75
2022/01/30 06:40:53;;;;;;;59.25;23.40;;;;;;;-2.44;100.00;97961.81;5050048;28;20029;-77
2022/01/30 06:43:19;;;;;;;65.03;23.27;;;;;;;-2.37;100.00;97963.44;5033930;28;20026;-75
2022/01/30 06:45:44;;;;;;;39.10;17.67;;;;;;;-2.27;100.00;97971.81;5029952;28;20033;-75
2022/01/30 06:48:10;;;;;;;46.08;17.35;;;;;;;-2.14;100.00;97964.75;5034333;28;20116;-74
2022/01/30 06:50:35;;;;;;;77.65;28.98;;;;;;;-2.12;99.93;97966.19;5033701;28;20037;-74
2022/01/30 06:53:01;;;;;;;78.03;29.00;;;;;;;-2.06;99.16;97948.41;5033649;28;20045;-77
2022/01/30 06:55:27;;;;;;;68.45;26.50;;;;;;;-1.98;98.55;97950.84;5033406;28;20524;-75
2022/01/30 06:57:52;;;;;;;38.05;17.65;;;;;;;-1.81;97.43;97957.31;5033452;28;20554;-75
2022/01/30 07:00:18;;;;;;;47.05;19.50;;;;;;;-1.81;97.09;97960.00;5032415;28;20382;-74
2022/01/30 07:02:43;;;;;;;45.03;18.38;;;;;;;-1.51;96.37;97962.91;5033685;28;20033;-77
2022/01/30 07:05:09;;;;;;;34.20;15.02;;;;;;;-1.16;93.08;97962.16;5032464;28;20036;-74
2022/01/30 07:07:34;;;;;;;43.45;18.17;;;;;;;-0.26;87.15;97975.84;5033517;28;20029;-74
2022/01/30 07:10:00;;;;;;;41.67;17.65;;;;;;;0.40;82.27;97984.66;5033462;28;20481;-75
2022/01/30 07:12:26;;;;;;;46.13;19.60;;;;;;;0.71;78.10;97970.09;5033436;28;20025;-75
2022/01/30 07:14:51;;;;;;;40.15;17.40;;;;;;;1.09;75.42;97975.03;5032763;28;20040;-74
2022/01/30 07:17:17;;;;;;;46.08;18.02;;;;;;;1.13;74.91;97984.25;5033275;28;20026;-75
2022/01/30 07:19:42;;;;;;;42.25;18.17;;;;;;;1.12;75.08;97981.81;5041179;28;20123;-76
2022/01/30 07:22:08;;;;;;;30.70;13.55;;;;;;;1.81;71.42;97981.72;5053003;28;20021;-76
2022/01/30 07:24:33;;;;;;;42.05;18.30;;;;;;;2.04;69.82;97978.94;5053474;28;20159;-78
2022/01/30 07:26:58;;;;;;;41.40;17.30;;;;;;;2.70;68.05;97991.75;5050673;28;20389;-76
2022/01/30 07:29:24;;;;;;;39.42;17.83;;;;;;;3.63;63.88;98003.75;5042860;28;20029;-81
2022/01/30 07:31:49;;;;;;;36.90;16.73;;;;;;;4.39;60.92;97983.81;5053054;28;20039;-76
2022/01/30 07:34:15;;;;;;;33.90;14.18;;;;;;;5.66;57.30;97986.47;5057609;28;20032;-77
2022/01/30 07:36:42;;;;;;;32.85;14.52;;;;;;;5.48;54.42;97986.91;5066625;28;20736;-84
2022/01/30 07:39:11;;;;;;;24.40;12.85;;;;;;;5.95;54.00;97986.94;5059980;28;20087;-77
2022/01/30 07:41:37;;;;;;;28.25;13.75;;;;;;;6.19;53.08;97981.84;5055824;28;20039;-79
2022/01/30 07:44:04;;;;;;;28.17;13.25;;;;;;;6.83;51.13;97988.50;5060257;28;20494;-83
2022/01/30 07:46:30;;;;;;;25.05;12.82;;;;;;;8.17;47.85;97992.41;5040698;28;20127;-75
2022/01/30 07:48:56;;;;;;;23.85;12.55;;;;;;;8.23;46.62;97995.91;5031185;28;20395;-76
2022/01/30 07:51:21;;;;;;;22.98;11.85;;;;;;;7.84;46.41;97984.88;5042844;28;20029;-76
2022/01/30 07:53:47;;;;;;;24.95;12.05;;;;;;;8.13;45.93;97991.31;5052427;28;20024;-78
2022/01/30 07:56:12;;;;;;;23.02;11.63;;;;;;;8.68;45.22;97987.50;5051390;28;20049;-76
2022/01/30 07:58:38;;;;;;;24.77;12.45;;;;;;;9.62;43.41;97997.94;5050397;28;20033;-75
2022/01/30 08:01:04;;;;;;;22.10;11.43;;;;;;;9.05;43.09;97976.09;5050613;28;20158;-77
2022/01/30 08:03:30;;;;;;;23.85;12.10;;;;;;;9.82;42.29;97977.00;5051886;28;20490;-76
2022/01/30 08:05:55;;;;;;;26.55;14.20;;;;;;;9.25;41.88;97975.91;5051890;28;20025;-76
2022/01/30 08:08:21;;;;;;;28.98;14.82;;;;;;;10.78;39.65;97968.41;5050838;28;20087;-75
2022/01/30 08:10:46;;;;;;;28.42;16.30;;;;;;;9.96;40.95;97959.63;5054065;28;20041;-79
2022/01/30 08:13:14;;;;;;;27.58;15.00;;;;;;;10.30;40.30;97981.41;5053927;28;20029;-81
2022/01/30 08:15:39;;;;;;;28.27;15.07;;;;;;;9.77;41.01;97986.09;5050962;28;20041;-78
2022/01/30 08:18:05;;;;;;;22.58;12.70;;;;;;;9.50;41.49;97978.41;5047386;28;20981;-77
2022/01/30 08:20:30;;;;;;;25.48;13.35;;;;;;;9.95;40.85;97966.19;5049222;28;20116;-81
2022/01/30 08:22:56;;;;;;;27.98;14.63;;;;;;;11.42;39.01;97975.88;5051037;28;20027;-75
2022/01/30 08:25:24;;;;;;;22.48;12.13;;;;;;;11.41;38.21;97976.97;5045863;28;20029;-74
2022/01/30 08:27:51;;;;;;;29.95;15.23;;;;;;;11.56;38.04;97973.19;5051341;28;20028;-76
2022/01/30 08:30:16;;;;;;;23.05;12.10;;;;;;;11.15;38.83;97973.84;5050729;28;20025;-76
2022/01/30 08:32:44;;;;;;;24.77;12.65;;;;;;;10.19;40.49;97968.94;5050086;28;20025;-75
2022/01/30 08:35:14;;;;;;;21.40;12.15;;;;;;;12.10;37.36;97975.19;5047814;28;20121;-76
2022/01/30 08:37:40;;;;;;;21.27;11.20;;;;;;;11.37;37.71;97973.19;5050177;28;20025;-75
2022/01/30 08:40:11;;;;;;;21.70;12.18;;;;;;;11.27;37.72;97965.19;5050982;28;20035;-78
2022/01/30 08:42:37;;;;;;;23.58;12.23;;;;;;;11.11;38.25;97970.09;5050540;28;20072;-79
2022/01/30 08:45:05;;;;;;;22.60;11.38;;;;;;;11.11;38.10;97963.81;5050345;28;20541;-77
2022/01/30 08:47:36;;;;;;;19.27;11.90;;;;;;;10.85;39.06;97978.97;5050402;28;20024;-77
2022/01/30 08:50:04;;;;;;;23.80;12.90;;;;;;;11.43;37.92;97961.06;5047598;28;20024;-76
2022/01/30 08:52:29;;;;;;;19.05;11.10;;;;;;;11.13;38.17;97972.53;5048731;28;20532;-76
2022/01/30 08:54:55;;;;;;;27.20;12.63;;;;;;;11.37;37.03;97967.72;5050899;28;20040;-77
2022/01/30 08:57:20;;;;;;;23.08;11.30;;;;;;;11.31;37.46;97957.97;5041686;28;20051;-75
2022/01/30 08:59:46;;;;;;;23.55;13.23;;;;;;;12.46;36.19;97970.59;5048117;28;20075;-76
2022/01/30 09:02:12;;;;;;;22.38;11.55;;;;;;;11.53;37.23;97963.59;5046521;28;20478;-76
2022/01/30 09:04:38;;;;;;;24.42;12.70;;;;;;;11.85;37.05;97961.97;5058375;28;20052;-77
2022/01/30 09:07:05;;;;;;;26.13;12.48;;;;;;;12.60;35.76;97963.16;5039722;28;20068;-79
2022/01/30 09:09:30;;;;;;;24.85;11.60;;;;;;;11.81;36.33;97954.34;5048477;28;20029;-75
2022/01/30 09:11:58;;;;;;;20.67;11.27;;;;;;;11.97;35.76;97962.28;5050299;28;20048;-74
2022/01/30 09:14:28;;;;;;;23.27;13.55;;;;;;;12.62;35.31;97971.91;5050137;28;20017;-76
2022/01/30 09:16:53;;;;;;;23.45;12.02;;;;;;;12.81;35.04;97972.53;5033077;28;20486;-76
2022/01/30 09:19:19;;;;;;;24.05;12.63;;;;;;;13.42;33.29;97973.88;5037636;28;20029;-76
2022/01/30 09:21:46;;;;;;;22.35;12.55;;;;;;;13.03;34.08;97965.47;5030647;28;20024;-74
2022/01/30 09:24:12;;;;;;;25.77;13.15;;;;;;;12.84;34.50;97968.38;5041941;28;20082;-75
2022/01/30 09:26:37;;;;;;;26.23;14.43;;;;;;;13.35;33.73;97973.50;5037081;28;20134;-75
2022/01/30 09:29:03;;;;;;;24.40;12.73;;;;;;;13.08;34.05;97965.34;5049596;28;20434;-75
2022/01/30 09:31:28;;;;;;;25.63;13.93;;;;;;;12.52;35.47;97966.63;5048808;28;20048;-74
2022/01/30 09:33:53;;;;;;;26.05;14.85;;;;;;;13.60;34.62;97953.59;5049918;28;20033;-74
2022/01/30 09:36:19;;;;;;;26.65;15.60;;;;;;;13.57;33.98;97932.25;5050042;28;20014;-73
2022/01/30 09:38:44;;;;;;;33.15;14.80;;;;;;;14.25;33.65;97959.22;5049021;28;20478;-74
2022/01/30 09:41:11;;;;;;;28.98;15.23;;;;;;;13.89;33.91;97953.94;5048379;28;20071;-75
2022/01/30 09:43:37;;;;;;;27.90;15.00;;;;;;;13.63;34.07;97961.22;5050146;28;20017;-74
2022/01/30 09:46:03;;;;;;;28.00;14.20;;;;;;;13.21;34.94;97953.53;5049936;28;20045;-73
2022/01/30 09:48:34;;;;;;;25.45;14.82;;;;;;;13.08;34.62;97946.97;5049538;28;20482;-73
2022/01/30 09:51:02;;;;;;;23.80;13.40;;;;;;;13.23;35.10;97946.59;5049598;28;20029;-75
2022/01/30 09:53:27;;;;;;;31.02;12.40;;;;;;;13.30;34.60;97965.38;5049975;28;20052;-75
2022/01/30 09:55:52;;;;;;;27.80;13.23;;;;;;;13.36;34.66;97958.63;5047582;28;20071;-74
2022/01/30 09:58:18;;;;;;;27.50;12.32;;;;;;;13.35;34.45;97957.00;5060032;28;20025;-75
2022/01/30 10:00:45;;;;;;;22.55;12.02;;;;;;;13.14;34.85;97953.16;5051317;28;20035;-73
2022/01/30 10:03:11;;;;;;;36.15;11.48;;;;;;;13.53;34.62;97957.94;5058690;28;20025;-79
2022/01/30 10:05:38;;;;;;;26.98;11.88;;;;;;;13.27;35.36;97966.84;5064986;28;20029;-75
2022/01/30 10:08:05;;;;;;;23.95;12.30;;;;;;;12.87;36.11;97954.03;5065612;28;20081;-76
2022/01/30 10:10:30;;;;;;;32.35;13.70;;;;;;;13.40;35.29;97948.66;5062721;28;20029;-82
2022/01/30 10:13:02;;;;;;;26.42;13.15;;;;;;;12.81;36.11;97953.31;5052316;28;20025;-76
2022/01/30 10:15:28;;;;;;;27.88;12.45;;;;;;;13.53;34.49;97969.75;5050028;28;20028;-83
2022/01/30 10:17:53;;;;;;;22.27;12.35;;;;;;;12.65;36.20;97957.56;5051972;28;20025;-78
2022/01/30 10:20:25;;;;;;;31.85;12.90;;;;;;;13.49;34.60;97966.00;5049524;28;20394;-73
2022/01/30 10:23:07;;;;;;;25.58;11.90;;;;;;;13.30;34.85;97954.41;5051073;28;20505;-76
2022/01/30 10:25:36;;;;;;;24.65;12.50;;;;;;;13.94;33.29;97942.78;5053292;28;20112;-76
2022/01/30 10:28:06;;;;;;;20.10;10.93;;;;;;;13.91;32.89;97942.59;5054003;28;20022;-79
2022/01/30 10:30:53;;;;;;;19.75;11.02;;;;;;;13.82;32.79;97939.81;5056294;28;20039;-87
2022/01/30 10:33:42;;;;;;;21.88;11.98;;;;;;;13.97;32.94;97929.53;5053990;28;20503;-76
2022/01/30 10:36:09;;;;;;;21.42;11.40;;;;;;;14.52;32.52;97927.13;5047812;28;20045;-82
2022/01/30 10:38:52;;;;;;;28.25;11.13;;;;;;;14.59;32.29;97930.22;5053275;28;20028;-76
2022/01/30 10:41:22;;;;;;;28.23;13.27;;;;;;;14.54;32.35;97924.84;5053459;28;20640;-76
2022/01/30 10:43:57;;;;;;;25.83;12.48;;;;;;;14.72;32.40;97923.75;5044954;28;20056;-76
2022/01/30 10:46:28;;;;;;;21.85;11.50;;;;;;;14.85;32.32;97912.56;5044809;28;20667;-75
2022/01/30 10:48:57;;;;;;;25.92;13.23;;;;;;;15.57;31.68;97906.34;5049015;28;20028;-79
2022/01/30 10:51:23;;;;;;;21.33;11.93;;;;;;;15.66;31.49;97907.16;5044523;28;20021;-78
2022/01/30 10:53:51;;;;;;;65.78;37.30;;;;;;;15.93;31.06;97903.13;5053283;28;20036;-80
2022/01/30 10:56:28;;;;;;;23.77;13.63;;;;;;;15.01;32.27;97904.63;5052561;28;20057;-80
2022/01/30 10:59:09;;;;;;;25.83;13.30;;;;;;;14.90;32.98;97909.66;5044307;28;20390;-82
2022/01/30 11:01:36;;;;;;;44.78;25.52;;;;;;;14.98;33.33;97913.53;5043706;28;20089;-76
2022/01/30 11:04:02;;;;;;;19.00;10.75;;;;;;;15.06;33.62;97903.66;5054166;28;20033;-75
2022/01/30 11:06:28;;;;;;;22.05;11.48;;;;;;;14.47;34.20;97911.59;5057149;28;20025;-82
2022/01/30 11:09:04;;;;;;;25.48;11.55;;;;;;;14.54;34.42;97906.41;5051953;28;20053;-75
2022/01/30 11:11:44;;;;;;;27.77;11.82;;;;;;;14.38;34.39;97903.28;5052323;28;20425;-77
2022/01/30 11:19:22;;;;;;;31.15;13.10;;;;;;;12.95;38.03;97878.34;5053073;28;20033;-83
2022/01/30 11:21:50;;;;;;;24.35;12.55;;;;;;;13.92;36.12;97890.03;5051227;28;20025;-83
2022/01/30 11:24:17;;;;;;;22.83;12.10;;;;;;;13.34;37.18;97884.75;5032141;28;20035;-77
2022/01/30 11:26:43;;;;;;;26.80;13.50;;;;;;;12.91;38.40;97875.41;5049458;28;20021;-86
2022/01/30 11:29:11;;;;;;;25.38;13.20;;;;;;;13.18;37.53;97869.00;5055720;28;20549;-78
2022/01/30 11:31:37;;;;;;;23.20;12.00;;;;;;;12.72;38.37;97872.03;5054059;28;20028;-88
2022/01/30 11:34:03;;;;;;;22.58;12.70;;;;;;;13.13;38.07;97871.88;5053298;28;20036;-76
2022/01/30 11:36:29;;;;;;;26.55;13.50;;;;;;;12.79;38.56;97866.94;5044117;28;20026;-87
2022/01/30 11:38:55;;;;;;;20.02;12.05;;;;;;;12.57;38.67;97856.75;5041400;28;20029;-89
2022/01/30 11:41:21;;;;;;;24.08;12.70;;;;;;;12.59;39.21;97868.22;5049939;28;20482;-81
2022/01/30 11:44:18;;;;;;;28.50;12.23;;;;;;;13.06;38.64;97849.53;5036264;28;20029;-75
2022/01/30 11:46:57;;;;;;;23.48;11.32;;;;;;;13.57;37.52;97852.56;5037364;28;20024;-75
2022/01/30 11:49:36;;;;;;;21.48;11.20;;;;;;;13.07;38.31;97851.94;5036611;28;20169;-76
2022/01/30 11:52:02;;;;;;;17.98;10.45;;;;;;;11.95;40.75;97852.13;5051686;28;20025;-76
2022/01/30 11:54:45;;;;;;;19.23;10.25;;;;;;;11.03;42.66;97836.63;5050321;28;20123;-76
2022/01/30 11:57:20;;;;;;;21.05;11.52;;;;;;;10.54;44.46;97837.22;5042617;28;20402;-75
2022/01/30 11:59:54;;;;;;;22.47;10.90;;;;;;;10.14;45.64;97849.56;5052086;28;20048;-79
2022/01/30 12:02:35;;;;;;;19.45;10.30;;;;;;;9.74;47.02;97844.63;5041079;28;20311;-77
2022/01/30 12:05:05;;;;;;;22.77;10.32;;;;;;;9.54;47.41;97829.31;5035943;28;20040;-75
2022/01/30 12:07:49;;;;;;;19.50;10.48;;;;;;;9.52;47.87;97827.97;5054752;28;20660;-81
2022/01/30 12:10:21;;;;;;;26.88;10.27;;;;;;;9.62;47.81;97827.81;5061235;28;20069;-80
2022/01/30 12:12:50;;;;;;;21.67;10.00;;;;;;;9.48;48.37;97821.47;5055960;28;20116;-76
2022/01/30 12:15:37;;;;;;;24.77;11.20;;;;;;;9.42;49.03;97823.44;5053427;28;20501;-77
2022/01/30 12:18:07;;;;;;;20.67;10.15;;;;;;;9.71;48.71;97808.91;5052993;28;20029;-76
2022/01/30 12:21:08;;;;;;;27.75;11.15;;;;;;;9.76;48.24;97814.28;5051591;28;20025;-74
2022/01/30 12:23:38;;;;;;;37.75;11.00;;;;;;;9.81;48.61;97830.59;5052233;28;20502;-78
2022/01/30 12:26:09;;;;;;;23.08;11.02;;;;;;;9.72;48.71;97815.97;5048662;28;20013;-77